Time;durP1;ratioP1;P1;durP2;ratioP2;P2;SDS_P1;SDS_P2;PMS_P1;PMS_P2;Temp;Humidity;BMP_temperature;BMP_pressure;BME280_temperature;BME280_humidity;BME280_pressure;Samples;Min_cycle;Max_cycle;Signal;HPM_P1;HPM_P2
2023/05/03 00:00:26;;;;;;;25.40;18.50;;;;;;;;;;107774;1251;24281;-79
2023/05/03 00:03:09;;;;;;;23.40;15.80;;;;;;;;;;107759;1253;22650;-79
2023/05/03 00:05:36;;;;;;;20.40;14.50;;;;;;;;;;107785;1251;22522;-78
2023/05/03 00:08:03;;;;;;;17.10;11.20;;;;;;;;;;107767;1253;24218;-79
2023/05/03 00:10:29;;;;;;;18.80;13.50;;;;;;;;;;107794;1251;24251;-78
2023/05/03 00:12:56;;;;;;;25.60;15.00;;;;;;;;;;107765;1251;22515;-78
2023/05/03 00:15:22;;;;;;;20.10;13.60;;;;;;;;;;107788;1252;25230;-78
2023/05/03 00:17:48;;;;;;;21.00;14.40;;;;;;;;;;108111;1251;22558;-79
2023/05/03 00:20:16;;;;;;;22.50;13.60;;;;;;;;;;107765;1251;24096;-79
2023/05/03 00:22:42;;;;;;;23.70;16.00;;;;;;;;;;107731;1251;25494;-79
2023/05/03 00:25:09;;;;;;;27.00;17.70;;;;;;;;;;107732;1250;25370;-78
2023/05/03 00:27:35;;;;;;;23.90;15.10;;;;;;;;;;107760;1253;22583;-78
2023/05/03 00:30:02;;;;;;;21.80;13.00;;;;;;;;;;107714;1250;22962;-78
2023/05/03 00:32:28;;;;;;;19.50;12.20;;;;;;;;;;107717;1250;25268;-78
2023/05/03 00:34:55;;;;;;;16.30;11.90;;;;;;;;;;107722;1251;25216;-78
2023/05/03 00:37:22;;;;;;;20.50;14.00;;;;;;;;;;107749;1251;24221;-78
2023/05/03 00:39:48;;;;;;;23.00;14.70;;;;;;;;;;107667;1251;24246;-78
2023/05/03 00:42:14;;;;;;;20.40;14.80;;;;;;;;;;107785;1253;22558;-78
2023/05/03 00:44:41;;;;;;;19.10;14.10;;;;;;;;;;107750;1251;22519;-78
2023/05/03 00:47:07;;;;;;;20.50;14.20;;;;;;;;;;107760;1251;23662;-78
2023/05/03 00:49:33;;;;;;;21.50;14.30;;;;;;;;;;107772;1252;25248;-80
2023/05/03 00:52:00;;;;;;;15.60;11.30;;;;;;;;;;107734;1251;24244;-78
2023/05/03 00:54:27;;;;;;;13.90;10.30;;;;;;;;;;107750;1253;22683;-78
2023/05/03 00:56:54;;;;;;;17.90;11.80;;;;;;;;;;107666;1251;24263;-79
2023/05/03 00:59:20;;;;;;;18.50;12.80;;;;;;;;;;107710;1253;25969;-79
2023/05/03 01:01:47;;;;;;;25.00;16.00;;;;;;;;;;107740;1251;22507;-79
2023/05/03 01:04:13;;;;;;;19.00;13.80;;;;;;;;;;107772;1253;26460;-79
2023/05/03 01:06:43;;;;;;;17.10;12.20;;;;;;;;;;107778;1251;22548;-79
2023/05/03 01:09:11;;;;;;;18.00;11.60;;;;;;;;;;107747;1253;26336;-79
2023/05/03 01:11:45;;;;;;;17.40;12.60;;;;;;;;;;107652;1255;25309;-79
2023/05/03 01:14:15;;;;;;;17.50;12.80;;;;;;;;;;107714;1251;22520;-79
2023/05/03 01:16:43;;;;;;;18.20;13.00;;;;;;;;;;107754;1251;22520;-78
2023/05/03 01:19:14;;;;;;;18.40;11.90;;;;;;;;;;107771;1253;22525;-79
2023/05/03 01:21:41;;;;;;;20.40;13.90;;;;;;;;;;107789;1253;25934;-78
2023/05/03 01:24:13;;;;;;;20.00;14.70;;;;;;;;;;107759;1251;22521;-78
2023/05/03 01:26:39;;;;;;;19.40;13.80;;;;;;;;;;107822;1251;23239;-79
2023/05/03 01:29:05;;;;;;;27.60;18.90;;;;;;;;;;107762;1250;22531;-78
2023/05/03 01:31:35;;;;;;;19.10;16.50;;;;;;;;;;107723;1253;24419;-78
2023/05/03 01:34:11;;;;;;;21.40;17.10;;;;;;;;;;107722;1253;25371;-79
2023/05/03 01:36:38;;;;;;;21.60;16.20;;;;;;;;;;110965;1248;23036;-79
2023/05/03 01:39:08;;;;;;;19.80;15.90;;;;;;;;;;110741;1251;22344;-78
2023/05/03 01:41:35;;;;;;;24.80;17.00;;;;;;;;;;110952;1249;22487;-79
2023/05/03 01:44:02;;;;;;;22.90;16.30;;;;;;;;;;110730;1252;22990;-76
2023/05/03 01:46:28;;;;;;;23.40;16.80;;;;;;;;;;109903;1251;22629;-75
2023/05/03 01:48:55;;;;;;;22.70;16.40;;;;;;;;;;107751;1251;22517;-79
2023/05/03 01:51:21;;;;;;;22.40;17.00;;;;;;;;;;107749;1251;22503;-78
2023/05/03 01:53:47;;;;;;;31.10;20.50;;;;;;;;;;107765;1253;25386;-78
2023/05/03 01:56:14;;;;;;;20.60;15.60;;;;;;;;;;107723;1251;24257;-79
2023/05/03 01:58:40;;;;;;;21.50;14.90;;;;;;;;;;107649;1251;134383;-79
2023/05/03 02:01:06;;;;;;;15.30;11.20;;;;;;;;;;107733;1253;25347;-79
2023/05/03 02:03:33;;;;;;;21.60;14.60;;;;;;;;;;107729;1251;22642;-78
2023/05/03 02:05:59;;;;;;;18.50;13.90;;;;;;;;;;110977;1249;22162;-80
2023/05/03 02:08:26;;;;;;;19.30;13.50;;;;;;;;;;110977;1250;22351;-79
2023/05/03 02:10:52;;;;;;;18.30;12.80;;;;;;;;;;110956;1251;22820;-76
2023/05/03 02:13:19;;;;;;;20.80;13.20;;;;;;;;;;110688;1254;22353;-78
2023/05/03 02:15:45;;;;;;;22.10;14.30;;;;;;;;;;110957;1250;22486;-77
2023/05/03 02:18:11;;;;;;;33.00;23.80;;;;;;;;;;110983;1249;22157;-76
2023/05/03 02:20:37;;;;;;;22.10;14.70;;;;;;;;;;110932;1251;23443;-76
2023/05/03 02:23:04;;;;;;;18.60;13.10;;;;;;;;;;109731;1250;22563;-79
2023/05/03 02:25:31;;;;;;;18.10;14.00;;;;;;;;;;107707;1251;25214;-78
2023/05/03 02:27:57;;;;;;;27.70;20.00;;;;;;;;;;107758;1250;22524;-78
2023/05/03 02:30:23;;;;;;;40.10;32.40;;;;;;;;;;107667;1250;23131;-78
2023/05/03 02:32:50;;;;;;;35.10;31.10;;;;;;;;;;107718;1251;25540;-78
2023/05/03 02:35:16;;;;;;;25.00;16.50;;;;;;;;;;107722;1253;22520;-78
2023/05/03 02:37:42;;;;;;;33.20;23.30;;;;;;;;;;107705;1251;22634;-78
2023/05/03 02:40:09;;;;;;;25.10;19.20;;;;;;;;;;107731;1251;22617;-78
2023/05/03 02:42:36;;;;;;;19.40;13.70;;;;;;;;;;107737;1253;25361;-79
2023/05/03 02:45:02;;;;;;;17.30;12.90;;;;;;;;;;107727;1251;22908;-78
2023/05/03 02:47:29;;;;;;;18.40;11.50;;;;;;;;;;107761;1251;23112;-78
2023/05/03 02:49:55;;;;;;;17.70;12.20;;;;;;;;;;107731;1251;25362;-78
2023/05/03 02:52:22;;;;;;;15.80;10.50;;;;;;;;;;107787;1251;22648;-79
2023/05/03 02:54:48;;;;;;;16.20;10.80;;;;;;;;;;107797;1250;23300;-78
2023/05/03 02:57:14;;;;;;;18.20;11.90;;;;;;;;;;107810;1251;22502;-78
2023/05/03 02:59:41;;;;;;;18.00;12.60;;;;;;;;;;107823;1251;25327;-78
2023/05/03 03:02:07;;;;;;;19.80;13.50;;;;;;;;;;107865;1251;25315;-79
2023/05/03 03:04:34;;;;;;;20.10;13.60;;;;;;;;;;107836;1250;25283;-80
2023/05/03 03:07:00;;;;;;;21.70;15.20;;;;;;;;;;107747;1253;22529;-78
2023/05/03 03:09:26;;;;;;;19.00;14.00;;;;;;;;;;107797;1252;22503;-79
2023/05/03 03:11:53;;;;;;;21.20;14.70;;;;;;;;;;107770;1251;22529;-79
2023/05/03 03:14:19;;;;;;;23.60;15.60;;;;;;;;;;107761;1252;22539;-78
2023/05/03 03:16:45;;;;;;;23.40;16.40;;;;;;;;;;107796;1251;23235;-78
2023/05/03 03:19:12;;;;;;;26.90;18.50;;;;;;;;;;108538;1249;22120;-79
2023/05/03 03:21:39;;;;;;;34.10;24.10;;;;;;;;;;110957;1252;22490;-79
2023/05/03 03:24:05;;;;;;;44.10;29.80;;;;;;;;;;110997;1250;22506;-79
2023/05/03 03:26:31;;;;;;;37.60;26.80;;;;;;;;;;110950;1251;22322;-78
2023/05/03 03:28:58;;;;;;;37.90;26.90;;;;;;;;;;110984;1249;23021;-79
2023/05/03 03:31:24;;;;;;;30.90;24.00;;;;;;;;;;110990;1250;22337;-79
2023/05/03 03:33:51;;;;;;;31.00;24.40;;;;;;;;;;111002;1250;22503;-80
2023/05/03 03:36:17;;;;;;;26.70;19.20;;;;;;;;;;110991;1249;22170;-79
2023/05/03 03:38:43;;;;;;;26.40;18.80;;;;;;;;;;110958;1249;22482;-79
2023/05/03 03:41:10;;;;;;;26.80;18.90;;;;;;;;;;110998;1251;22337;-79
2023/05/03 03:43:36;;;;;;;25.30;18.70;;;;;;;;;;110967;1249;23073;-78
2023/05/03 03:46:02;;;;;;;31.10;20.90;;;;;;;;;;110969;1250;22339;-76
2023/05/03 03:48:29;;;;;;;30.80;21.20;;;;;;;;;;110950;1250;22460;-76
2023/05/03 03:50:55;;;;;;;42.80;22.20;;;;;;;;;;110942;1251;23095;-76
2023/05/03 03:53:22;;;;;;;36.20;22.80;;;;;;;;;;110936;1251;22319;-76
2023/05/03 03:55:48;;;;;;;37.70;24.30;;;;;;;;;;109060;1250;22530;-78
2023/05/03 03:58:14;;;;;;;40.00;26.10;;;;;;;;;;107806;1253;25328;-79
2023/05/03 04:00:41;;;;;;;35.60;24.10;;;;;;;;;;109409;1249;22127;-79
2023/05/03 04:03:07;;;;;;;32.50;22.10;;;;;;;;;;110938;1249;22469;-76
2023/05/03 04:05:34;;;;;;;33.20;21.80;;;;;;;;;;109441;1250;22619;-78
2023/05/03 04:08:00;;;;;;;31.10;20.60;;;;;;;;;;107802;1251;25485;-79
2023/05/03 04:10:27;;;;;;;33.20;22.00;;;;;;;;;;107771;1251;24228;-79
2023/05/03 04:12:54;;;;;;;31.60;19.60;;;;;;;;;;107709;1254;23161;-79
2023/05/03 04:15:20;;;;;;;26.40;19.70;;;;;;;;;;107759;1251;26329;-80
2023/05/03 04:17:48;;;;;;;28.10;18.90;;;;;;;;;;107736;1251;22515;-78
2023/05/03 04:20:16;;;;;;;26.60;18.50;;;;;;;;;;107785;1251;22515;-79
2023/05/03 04:22:42;;;;;;;25.50;18.00;;;;;;;;;;107756;1252;24203;-78
2023/05/03 04:25:13;;;;;;;23.50;16.60;;;;;;;;;;107726;1251;22609;-78
2023/05/03 04:27:39;;;;;;;19.70;15.10;;;;;;;;;;107725;1251;23098;-80
2023/05/03 04:30:06;;;;;;;29.80;19.60;;;;;;;;;;107769;1249;23753;-78
2023/05/03 04:32:36;;;;;;;25.80;17.50;;;;;;;;;;107763;1252;24177;-78
2023/05/03 04:35:07;;;;;;;23.40;17.20;;;;;;;;;;107791;1251;24388;-78
2023/05/03 04:37:34;;;;;;;32.00;22.50;;;;;;;;;;107738;1251;25233;-78
2023/05/03 04:40:00;;;;;;;30.80;19.60;;;;;;;;;;107803;1250;25380;-78
2023/05/03 04:42:27;;;;;;;30.50;20.30;;;;;;;;;;107753;1250;25382;-79
2023/05/03 04:44:53;;;;;;;35.20;21.20;;;;;;;;;;107760;1251;22537;-78
2023/05/03 04:47:20;;;;;;;33.90;22.60;;;;;;;;;;107727;1251;22577;-78
2023/05/03 04:49:46;;;;;;;34.40;21.70;;;;;;;;;;107770;1253;24243;-79
2023/05/03 04:52:13;;;;;;;37.00;26.40;;;;;;;;;;107779;1251;22513;-78
2023/05/03 04:54:40;;;;;;;38.70;26.90;;;;;;;;;;107804;1250;22525;-78
2023/05/03 04:57:06;;;;;;;38.20;25.20;;;;;;;;;;107782;1250;25316;-79
2023/05/03 04:59:32;;;;;;;35.20;25.60;;;;;;;;;;107792;1251;22537;-79
2023/05/03 05:01:58;;;;;;;34.00;24.50;;;;;;;;;;107844;1253;25255;-78
2023/05/03 05:04:25;;;;;;;68.50;48.50;;;;;;;;;;107809;1251;22999;-79
2023/05/03 05:06:52;;;;;;;118.50;76.30;;;;;;;;;;107754;1250;23210;-78
2023/05/03 05:09:26;;;;;;;127.10;85.60;;;;;;;;;;107825;1250;22519;-79
2023/05/03 05:11:52;;;;;;;98.10;59.40;;;;;;;;;;107759;1251;22458;-80
2023/05/03 05:14:18;;;;;;;293.90;201.20;;;;;;;;;;107830;1251;22572;-79
2023/05/03 05:16:45;;;;;;;254.20;149.20;;;;;;;;;;107776;1251;22537;-79
2023/05/03 05:19:11;;;;;;;128.60;84.00;;;;;;;;;;107739;1251;22599;-79
2023/05/03 05:21:38;;;;;;;46.70;30.50;;;;;;;;;;107668;1251;22519;-79
2023/05/03 05:24:04;;;;;;;37.70;26.40;;;;;;;;;;107806;1250;22522;-79
2023/05/03 05:26:30;;;;;;;38.90;27.30;;;;;;;;;;107779;1251;22999;-79
2023/05/03 05:28:57;;;;;;;37.40;23.20;;;;;;;;;;107749;1251;23130;-79
2023/05/03 05:31:23;;;;;;;43.70;26.40;;;;;;;;;;107749;1249;22646;-79
2023/05/03 05:33:49;;;;;;;38.70;29.50;;;;;;;;;;107759;1250;22523;-79
2023/05/03 05:36:16;;;;;;;36.30;25.10;;;;;;;;;;107726;1251;22945;-79
2023/05/03 05:38:43;;;;;;;33.30;24.30;;;;;;;;;;107747;1253;25985;-79
2023/05/03 05:41:10;;;;;;;33.70;22.70;;;;;;;;;;107776;1251;22550;-79
2023/05/03 05:43:37;;;;;;;34.70;23.20;;;;;;;;;;107739;1251;23282;-79
2023/05/03 05:46:03;;;;;;;38.80;26.10;;;;;;;;;;107854;1251;22721;-80
2023/05/03 05:48:30;;;;;;;30.60;21.10;;;;;;;;;;107743;1251;22518;-78
2023/05/03 05:50:56;;;;;;;31.40;21.20;;;;;;;;;;107809;1253;25320;-79
2023/05/03 05:53:23;;;;;;;51.10;39.50;;;;;;;;;;107768;1250;22466;-79
2023/05/03 05:55:49;;;;;;;73.00;62.20;;;;;;;;;;107788;1250;23568;-78
2023/05/03 05:58:16;;;;;;;80.60;70.40;;;;;;;;;;107741;1250;22530;-78
2023/05/03 06:00:42;;;;;;;58.40;46.90;;;;;;;;;;107758;1251;22562;-79
2023/05/03 06:03:09;;;;;;;66.80;46.90;;;;;;;;;;107730;1250;22535;-78
2023/05/03 06:05:35;;;;;;;52.30;37.30;;;;;;;;;;107792;1250;22640;-79
2023/05/03 06:08:01;;;;;;;33.30;23.10;;;;;;;;;;107734;1251;23380;-79
2023/05/03 06:10:28;;;;;;;33.30;23.00;;;;;;;;;;107740;1251;22528;-79
2023/05/03 06:12:54;;;;;;;40.90;29.90;;;;;;;;;;107719;1251;25485;-79
2023/05/03 06:15:20;;;;;;;42.70;34.10;;;;;;;;;;107723;1251;24942;-79
2023/05/03 06:17:47;;;;;;;44.60;30.70;;;;;;;;;;107717;1250;22520;-79
2023/05/03 06:20:13;;;;;;;41.00;31.50;;;;;;;;;;107803;1250;22636;-79
2023/05/03 06:22:39;;;;;;;36.90;28.30;;;;;;;;;;107735;1253;25342;-79
2023/05/03 06:25:06;;;;;;;67.10;49.50;;;;;;;;;;107743;1249;24343;-79
2023/05/03 06:27:32;;;;;;;36.10;26.20;;;;;;;;;;107761;1250;22591;-79
2023/05/03 06:29:59;;;;;;;37.30;24.60;;;;;;;;;;108169;1250;25264;-79
2023/05/03 06:32:25;;;;;;;36.90;24.50;;;;;;;;;;107816;1250;25271;-79
2023/05/03 06:34:52;;;;;;;53.00;41.20;;;;;;;;;;107808;1250;22733;-79
2023/05/03 06:37:18;;;;;;;33.90;23.00;;;;;;;;;;107812;1251;23114;-79
2023/05/03 06:39:45;;;;;;;42.70;28.80;;;;;;;;;;107800;1250;22533;-79
2023/05/03 06:42:11;;;;;;;43.90;29.20;;;;;;;;;;107791;1250;22522;-79
2023/05/03 06:44:37;;;;;;;43.60;30.90;;;;;;;;;;107791;1249;22541;-79
2023/05/03 06:47:04;;;;;;;36.50;23.60;;;;;;;;;;107777;1251;23236;-79
2023/05/03 06:49:31;;;;;;;37.10;26.50;;;;;;;;;;107819;1251;22519;-79
2023/05/03 06:51:57;;;;;;;38.60;30.30;;;;;;;;;;107787;1251;22531;-79
2023/05/03 06:54:24;;;;;;;36.20;26.30;;;;;;;;;;107731;1250;25283;-78
2023/05/03 06:56:50;;;;;;;32.10;24.50;;;;;;;;;;107765;1251;24244;-79
2023/05/03 06:59:16;;;;;;;30.00;21.60;;;;;;;;;;107766;1250;22608;-79
2023/05/03 07:01:43;;;;;;;30.30;20.90;;;;;;;;;;107810;1250;22540;-78
2023/05/03 07:04:09;;;;;;;37.30;26.60;;;;;;;;;;107817;1251;22525;-79
2023/05/03 07:06:36;;;;;;;30.00;21.50;;;;;;;;;;107779;1249;23268;-79
2023/05/03 07:09:03;;;;;;;30.40;20.30;;;;;;;;;;107746;1253;22529;-79
2023/05/03 07:11:30;;;;;;;31.80;22.60;;;;;;;;;;107833;1253;25697;-79
2023/05/03 07:13:56;;;;;;;32.90;21.00;;;;;;;;;;107782;1250;22869;-79
2023/05/03 07:16:24;;;;;;;57.50;44.70;;;;;;;;;;107828;1253;22514;-79
2023/05/03 07:18:50;;;;;;;33.90;23.20;;;;;;;;;;107794;1250;22518;-78
2023/05/03 07:21:17;;;;;;;34.50;24.80;;;;;;;;;;107791;1250;56972;-80
2023/05/03 07:23:43;;;;;;;30.40;22.40;;;;;;;;;;107810;1251;22888;-79
2023/05/03 07:26:09;;;;;;;35.50;24.20;;;;;;;;;;107808;1250;25485;-78
2023/05/03 07:28:36;;;;;;;36.90;25.50;;;;;;;;;;107750;1250;23744;-78
2023/05/03 07:31:03;;;;;;;31.70;21.40;;;;;;;;;;107818;1251;22514;-78
2023/05/03 07:33:30;;;;;;;34.70;24.00;;;;;;;;;;107796;1251;25380;-79
2023/05/03 07:35:57;;;;;;;37.30;25.40;;;;;;;;;;107826;1249;22813;-79
2023/05/03 07:38:23;;;;;;;29.30;19.40;;;;;;;;;;107759;1251;23368;-79
2023/05/03 07:40:49;;;;;;;28.20;19.70;;;;;;;;;;107773;1250;25367;-78
2023/05/03 07:43:17;;;;;;;27.90;17.80;;;;;;;;;;107774;1253;22525;-79
2023/05/03 07:45:43;;;;;;;23.00;16.10;;;;;;;;;;107796;1249;25338;-79
2023/05/03 07:48:10;;;;;;;28.20;20.00;;;;;;;;;;107823;1251;23305;-79
2023/05/03 07:50:37;;;;;;;21.00;16.00;;;;;;;;;;107833;1253;22788;-78
2023/05/03 07:53:03;;;;;;;24.40;16.40;;;;;;;;;;107574;1251;58902;-79
2023/05/03 07:55:31;;;;;;;22.30;16.00;;;;;;;;;;107912;1251;22669;-78
2023/05/03 07:57:58;;;;;;;24.60;17.40;;;;;;;;;;107794;1251;22613;-79
2023/05/03 08:00:25;;;;;;;39.10;27.10;;;;;;;;;;107677;1249;25367;-78
2023/05/03 08:02:52;;;;;;;69.90;58.90;;;;;;;;;;107748;1251;25500;-79
2023/05/03 08:05:18;;;;;;;64.90;55.20;;;;;;;;;;107740;1250;22514;-78
2023/05/03 08:07:45;;;;;;;40.50;31.90;;;;;;;;;;107762;1252;22650;-79
2023/05/03 08:10:11;;;;;;;30.10;24.20;;;;;;;;;;107782;1251;23697;-79
2023/05/03 08:12:38;;;;;;;40.20;29.00;;;;;;;;;;110969;1249;22067;-79
2023/05/03 08:15:05;;;;;;;69.40;43.50;;;;;;;;;;109217;1251;22560;-78
2023/05/03 08:17:33;;;;;;;49.70;35.80;;;;;;;;;;107761;1250;23365;-79
2023/05/03 08:19:59;;;;;;;29.00;21.70;;;;;;;;;;107640;1250;22528;-79
2023/05/03 08:22:25;;;;;;;25.60;18.80;;;;;;;;;;107784;1251;25394;-79
2023/05/03 08:24:52;;;;;;;31.90;27.20;;;;;;;;;;107795;1250;25377;-78
2023/05/03 08:27:19;;;;;;;30.00;22.70;;;;;;;;;;107775;1250;25373;-79
2023/05/03 08:29:46;;;;;;;19.20;15.90;;;;;;;;;;107807;1253;22527;-78
2023/05/03 08:32:13;;;;;;;37.50;33.60;;;;;;;;;;107778;1251;23948;-79
2023/05/03 08:34:39;;;;;;;20.00;16.50;;;;;;;;;;108944;1249;22984;-77
2023/05/03 08:37:06;;;;;;;32.40;24.40;;;;;;;;;;109225;1250;25348;-78
2023/05/03 08:39:32;;;;;;;61.70;40.80;;;;;;;;;;107750;1250;25371;-79
2023/05/03 08:41:59;;;;;;;25.30;15.50;;;;;;;;;;107742;1250;24084;-78
2023/05/03 08:44:26;;;;;;;23.90;17.70;;;;;;;;;;107785;1251;25466;-78
2023/05/03 08:46:53;;;;;;;45.20;32.70;;;;;;;;;;107784;1251;22522;-79
2023/05/03 08:49:20;;;;;;;18.20;14.30;;;;;;;;;;107764;1249;22546;-79
2023/05/03 08:51:47;;;;;;;88.70;54.50;;;;;;;;;;109739;1249;23340;-79
2023/05/03 08:54:14;;;;;;;54.70;35.20;;;;;;;;;;107813;1253;26343;-79
2023/05/03 08:56:41;;;;;;;23.80;16.80;;;;;;;;;;107771;1249;23030;-79
2023/05/03 08:59:09;;;;;;;28.00;18.20;;;;;;;;;;107829;1251;22518;-78
2023/05/03 09:01:35;;;;;;;15.30;11.60;;;;;;;;;;107770;1250;25363;-79
2023/05/03 09:04:02;;;;;;;18.30;13.10;;;;;;;;;;107769;1251;25495;-78
2023/05/03 09:06:31;;;;;;;13.50;10.60;;;;;;;;;;107787;1250;22646;-78
2023/05/03 09:08:58;;;;;;;;;;;;;;;;;;107805;1250;24233;-79
2023/05/03 09:11:28;;;;;;;16.80;10.30;;;;;;;;;;107780;1251;22829;-78
2023/05/03 09:14:14;;;;;;;14.10;9.90;;;;;;;;;;107782;1249;23224;-78
2023/05/03 09:16:40;;;;;;;12.80;9.60;;;;;;;;;;107804;1253;22634;-79
2023/05/03 09:19:08;;;;;;;11.50;9.00;;;;;;;;;;107715;1251;22585;-78
2023/05/03 09:21:34;;;;;;;13.20;9.60;;;;;;;;;;107806;1251;25354;-78
2023/05/03 09:24:04;;;;;;;11.10;9.10;;;;;;;;;;107756;1251;24278;-78
2023/05/03 09:26:31;;;;;;;12.60;9.10;;;;;;;;;;107744;1251;22934;-78
2023/05/03 09:28:58;;;;;;;13.70;9.90;;;;;;;;;;107809;1250;24218;-78
2023/05/03 09:31:24;;;;;;;12.70;9.90;;;;;;;;;;107761;1250;24747;-79
2023/05/03 09:33:52;;;;;;;14.60;10.80;;;;;;;;;;110943;1249;22538;-79
2023/05/03 09:36:18;;;;;;;32.60;20.90;;;;;;;;;;110937;1250;22351;-77
2023/05/03 09:38:45;;;;;;;63.10;39.50;;;;;;;;;;110971;1249;22833;-77
2023/05/03 09:41:11;;;;;;;18.50;13.60;;;;;;;;;;107925;1251;22520;-77
2023/05/03 09:43:48;;;;;;;16.90;11.80;;;;;;;;;;107882;1251;25379;-78
2023/05/03 09:46:14;;;;;;;17.50;11.70;;;;;;;;;;110970;1248;22474;-77
2023/05/03 09:48:41;;;;;;;16.60;12.50;;;;;;;;;;108412;1250;23251;-77
2023/05/03 09:51:07;;;;;;;26.80;19.50;;;;;;;;;;110801;1249;22368;-77
2023/05/03 09:53:34;;;;;;;14.60;11.40;;;;;;;;;;108314;1250;22548;-77
2023/05/03 09:56:02;;;;;;;12.70;9.50;;;;;;;;;;107770;1253;26611;-77
2023/05/03 09:58:29;;;;;;;13.30;10.10;;;;;;;;;;107747;1251;22959;-76
2023/05/03 10:00:56;;;;;;;15.80;10.70;;;;;;;;;;110598;1249;23028;-77
2023/05/03 10:03:33;;;;;;;14.00;9.50;;;;;;;;;;110990;1249;22213;-78
2023/05/03 10:06:00;;;;;;;15.30;10.80;;;;;;;;;;110742;1250;22868;-78
2023/05/03 10:08:28;;;;;;;17.80;13.20;;;;;;;;;;109692;1250;25489;-77
2023/05/03 10:10:55;;;;;;;19.50;15.30;;;;;;;;;;108036;1251;22514;-77
2023/05/03 10:13:22;;;;;;;18.20;12.40;;;;;;;;;;107805;1253;25274;-77
2023/05/03 10:15:48;;;;;;;15.00;12.60;;;;;;;;;;110476;1249;22349;-77
2023/05/03 10:18:15;;;;;;;16.10;12.60;;;;;;;;;;109453;1250;22519;-77
2023/05/03 10:20:46;;;;;;;20.40;16.20;;;;;;;;;;107856;1250;24270;-77
2023/05/03 10:23:13;;;;;;;19.60;14.90;;;;;;;;;;107757;1253;22521;-78
2023/05/03 10:25:40;;;;;;;15.70;12.90;;;;;;;;;;109879;1249;23050;-78
2023/05/03 10:28:07;;;;;;;17.30;11.30;;;;;;;;;;108665;1251;23019;-78
2023/05/03 10:30:34;;;;;;;16.50;12.10;;;;;;;;;;108007;1252;25446;-78
2023/05/03 10:33:14;;;;;;;22.80;13.90;;;;;;;;;;107713;1251;25387;-77
2023/05/03 10:35:41;;;;;;;15.40;11.10;;;;;;;;;;109819;1250;22535;-79
2023/05/03 10:38:13;;;;;;;13.10;8.20;;;;;;;;;;107729;1250;22556;-78
2023/05/03 10:40:40;;;;;;;10.50;7.70;;;;;;;;;;107890;1247;22533;-78
2023/05/03 10:43:07;;;;;;;39.80;26.90;;;;;;;;;;107936;1250;25353;-78
2023/05/03 10:45:35;;;;;;;40.40;25.70;;;;;;;;;;108597;1247;22654;-79
2023/05/03 10:48:11;;;;;;;32.50;20.70;;;;;;;;;;107950;1247;24998;-78
2023/05/03 10:50:38;;;;;;;12.80;8.60;;;;;;;;;;107898;1253;22514;-78
2023/05/03 10:53:04;;;;;;;14.80;11.80;;;;;;;;;;107887;1247;24240;-78
2023/05/03 10:55:30;;;;;;;28.40;20.50;;;;;;;;;;107886;1247;24193;-78
2023/05/03 10:57:57;;;;;;;24.80;21.10;;;;;;;;;;107871;1248;22547;-78
2023/05/03 11:00:32;;;;;;;23.80;18.00;;;;;;;;;;107933;1248;22576;-79
2023/05/03 11:03:17;;;;;;;13.70;10.90;;;;;;;;;;107902;1247;22529;-78
2023/05/03 11:05:44;;;;;;;26.30;19.90;;;;;;;;;;107869;1248;25346;-78
2023/05/03 11:08:11;;;;;;;25.00;18.80;;;;;;;;;;107702;1254;25213;-79
2023/05/03 11:10:38;;;;;;;29.90;19.90;;;;;;;;;;108908;1253;25378;-78
2023/05/03 11:13:05;;;;;;;39.20;23.80;;;;;;;;;;107882;1247;25387;-78
2023/05/03 11:15:32;;;;;;;20.60;13.60;;;;;;;;;;107948;1248;22518;-78
2023/05/03 11:17:58;;;;;;;15.40;11.70;;;;;;;;;;107893;1247;22532;-79
2023/05/03 11:20:25;;;;;;;16.00;13.70;;;;;;;;;;107913;1252;25920;-78
2023/05/03 11:22:51;;;;;;;16.40;12.80;;;;;;;;;;107685;1248;23102;-78
2023/05/03 11:25:18;;;;;;;10.50;7.30;;;;;;;;;;107940;1247;22547;-78
2023/05/03 11:27:46;;;;;;;13.10;9.10;;;;;;;;;;107844;1248;22521;-78
2023/05/03 11:30:12;;;;;;;14.00;9.00;;;;;;;;;;107925;1247;22656;-78
2023/05/03 11:32:42;;;;;;;12.80;9.40;;;;;;;;;;107911;1247;23459;-78
2023/05/03 11:35:09;;;;;;;14.20;9.20;;;;;;;;;;107939;1250;22572;-78
2023/05/03 11:37:35;;;;;;;17.00;14.40;;;;;;;;;;107697;1250;25481;-79
2023/05/03 11:40:01;;;;;;;17.60;15.40;;;;;;;;;;107841;1253;22537;-78
2023/05/03 11:42:28;;;;;;;17.60;15.70;;;;;;;;;;107876;1252;24355;-78
2023/05/03 11:44:55;;;;;;;12.60;9.90;;;;;;;;;;107976;1252;22650;-78
2023/05/03 11:47:21;;;;;;;16.20;11.70;;;;;;;;;;107858;1248;23702;-79
2023/05/03 11:49:54;;;;;;;25.30;15.20;;;;;;;;;;107867;1248;22536;-78
2023/05/03 11:52:24;;;;;;;24.30;15.90;;;;;;;;;;107918;1253;22521;-77
2023/05/03 11:54:50;;;;;;;16.70;11.20;;;;;;;;;;107896;1248;22546;-78
2023/05/03 11:57:17;;;;;;;17.20;10.20;;;;;;;;;;107892;1252;25288;-78
2023/05/03 11:59:43;;;;;;;14.80;12.50;;;;;;;;;;107701;1247;23232;-78
2023/05/03 12:02:14;;;;;;;27.30;21.50;;;;;;;;;;107899;1247;22526;-78
2023/05/03 12:04:42;;;;;;;16.80;11.30;;;;;;;;;;107927;1247;22528;-78
2023/05/03 12:07:09;;;;;;;15.10;10.80;;;;;;;;;;107921;1247;22481;-78
2023/05/03 12:09:36;;;;;;;16.10;12.40;;;;;;;;;;107942;1248;25489;-78
2023/05/03 12:12:03;;;;;;;22.90;15.50;;;;;;;;;;107896;1253;25398;-78
2023/05/03 12:14:48;;;;;;;17.40;13.30;;;;;;;;;;107882;1248;25492;-77
2023/05/03 12:17:18;;;;;;;18.70;14.30;;;;;;;;;;107889;1247;24263;-78
2023/05/03 12:19:45;;;;;;;20.90;14.60;;;;;;;;;;107851;1247;25207;-78
2023/05/03 12:22:18;;;;;;;21.80;16.30;;;;;;;;;;107897;1247;22603;-78
2023/05/03 12:24:45;;;;;;;42.80;30.60;;;;;;;;;;107906;1247;22534;-78
2023/05/03 12:27:12;;;;;;;31.50;22.60;;;;;;;;;;107939;1247;25344;-78
2023/05/03 12:29:38;;;;;;;30.20;18.40;;;;;;;;;;107878;1247;22531;-78
2023/05/03 12:32:05;;;;;;;65.10;46.00;;;;;;;;;;107853;1247;22740;-78
2023/05/03 12:34:32;;;;;;;18.00;14.30;;;;;;;;;;107920;1252;25216;-78
2023/05/03 12:37:01;;;;;;;20.00;15.90;;;;;;;;;;107875;1247;24960;-78
2023/05/03 12:39:27;;;;;;;32.30;24.30;;;;;;;;;;107904;1248;23593;-78
2023/05/03 12:41:54;;;;;;;32.30;24.00;;;;;;;;;;107920;1252;22531;-79
2023/05/03 12:44:21;;;;;;;23.00;18.70;;;;;;;;;;107833;1248;22515;-79
2023/05/03 12:46:48;;;;;;;27.50;22.90;;;;;;;;;;107904;1252;23168;-78
2023/05/03 12:49:15;;;;;;;25.20;17.90;;;;;;;;;;107710;1247;22562;-78
2023/05/03 12:51:41;;;;;;;17.30;14.40;;;;;;;;;;107842;1247;25171;-79
2023/05/03 12:54:10;;;;;;;32.10;26.30;;;;;;;;;;107888;1248;22532;-78
2023/05/03 12:56:36;;;;;;;23.70;18.50;;;;;;;;;;107940;1248;24105;-78
2023/05/03 12:59:03;;;;;;;19.70;16.10;;;;;;;;;;107881;1247;22595;-78
2023/05/03 13:01:29;;;;;;;17.70;14.30;;;;;;;;;;107912;1247;22959;-79
2023/05/03 13:03:56;;;;;;;24.10;15.70;;;;;;;;;;107960;1252;25226;-79
2023/05/03 13:06:23;;;;;;;24.90;17.90;;;;;;;;;;107888;1247;25370;-78
2023/05/03 13:08:49;;;;;;;23.40;17.40;;;;;;;;;;107881;1247;25188;-78
2023/05/03 13:11:17;;;;;;;34.20;23.10;;;;;;;;;;107873;1248;22504;-79
2023/05/03 13:13:44;;;;;;;34.20;20.20;;;;;;;;;;107885;1247;22511;-78
2023/05/03 13:16:10;;;;;;;23.70;14.80;;;;;;;;;;107963;1248;22519;-78
2023/05/03 13:18:37;;;;;;;24.30;17.10;;;;;;;;;;107887;1248;24194;-79
2023/05/03 13:21:05;;;;;;;25.50;17.70;;;;;;;;;;107882;1247;23186;-79
2023/05/03 13:23:32;;;;;;;82.00;44.00;;;;;;;;;;107700;1251;23167;-79
2023/05/03 13:25:59;;;;;;;24.80;18.30;;;;;;;;;;107852;1247;24597;-79
2023/05/03 13:28:26;;;;;;;20.80;15.50;;;;;;;;;;107883;1248;24216;-79
2023/05/03 13:30:52;;;;;;;19.20;14.80;;;;;;;;;;107903;1253;22520;-79
2023/05/03 13:33:19;;;;;;;27.70;19.10;;;;;;;;;;107849;1248;22531;-78
2023/05/03 13:35:45;;;;;;;19.70;13.70;;;;;;;;;;107893;1248;23033;-80
2023/05/03 13:38:11;;;;;;;22.80;16.30;;;;;;;;;;107867;1247;24205;-78
2023/05/03 13:40:38;;;;;;;19.50;12.50;;;;;;;;;;107911;1252;24243;-79
2023/05/03 13:43:04;;;;;;;16.10;11.40;;;;;;;;;;107862;1248;23718;-79
2023/05/03 13:45:30;;;;;;;18.90;13.70;;;;;;;;;;107929;1247;24183;-79
2023/05/03 13:47:57;;;;;;;25.70;16.60;;;;;;;;;;107907;1248;24206;-78
2023/05/03 13:50:23;;;;;;;21.40;14.70;;;;;;;;;;107935;1247;22560;-79
2023/05/03 13:52:50;;;;;;;21.50;14.10;;;;;;;;;;107951;1247;22518;-80
2023/05/03 13:55:16;;;;;;;19.50;11.70;;;;;;;;;;107947;1247;24234;-79
2023/05/03 13:57:43;;;;;;;19.70;12.00;;;;;;;;;;107890;1248;22814;-79
2023/05/03 14:00:10;;;;;;;19.10;11.10;;;;;;;;;;107762;1247;147054;-78
2023/05/03 14:02:36;;;;;;;17.70;11.60;;;;;;;;;;107862;1248;22518;-78
2023/05/03 14:05:04;;;;;;;15.40;11.10;;;;;;;;;;107900;1248;22648;-78